Strona główna
METAR-TAF:

METAR-TAF

Lotnisko :

Scatsta, Szetlandy, Szkocja

Szerokość geograficzna: 60-26N, Długość geograficzna: 001-18W, wysokość: 22 m

Aktualna obserwacja pogody

Raport powstał 26 minut temu, godzina 17:50 UTC
Wiatr 17 kt od południowo-południowy wschód
Temperatura 14°C
Wilgotność 88%
Ciśnienie 1013 hPa
Widzialność 10 km lub więcej

METAR: EGPM 211750Z AUTO 16017KT 9999 SCT009/// 14/12 Q1013

czas: 19:16 (18:16 UTC)

Prognoza

Raport powstał 1 godzina i 21 minut temu, godzina 16:55 UTC
Prognoza ważna od 21 godzina 18 UTC do 21 godzina 20 UTC
Wiatr 19 kt od południowo-południowy wschód
Widzialność 10 km lub więcej
Rozproszone chmury na wysokości 2000 ft
Prawdopodobieństwo 40% :
Przejściowo
od 21 godzina 18 UTC do 21 godzina 20 UTC
Widzialność: 6000 m
Przerywane chmury na wysokości 800 ft
deszcz

TAF: EGPM 211655Z 2118/2120 16019KT 9999 SCT020 PROB40 TEMPO 2118/2120 6000 RA BKN008

Obserwacja i prognoza pogody dla ponad 4000 lotnisk (raport METAR i TAF).

Dostępne stacje oznaczono żółtymi i czerwonymi punktami na mapie.

Najedź kursorem aby zobaczyć nazwę stacji.

Kliknij aby zobaczyć obserwacje i prognozy pogody.

Aby zmienić mapę: kliknij na zielony przycisk z czarnym krzyżykiem, aby powiększyć; na zielony przycisk z myślnikiem, aby pomniejszyć; na zielone strzałki, aby przejść do map sąsiednich.


METAR-TAF: